Doswell, Virginia
Current Conditions -  °F | °C
As of 4:26 AM on Thursday 27 Nov 2014 (Local Time) from KOFP Reporting Station
Haze Haze  
Wind Chill: 36°   Ceiling: 5500
Heat Index: 36°   Visibility: 3mi
Dew Point: 35°   Wind: 0mph
Humidity: 97%   Direction: NA
Pressure: 30.05"   Gusts: NA
Location:  37.86°N, 77.46°W
Report Text: KOFP 270926Z AUTO 00000KT 3SM BR BKN055 OVC070 02/02 A3005 RMK AO2 T00220017
Loading
Personal Weather Stations






























Interactive Weather Map New forecast layout! Learn more

10-Day Weather Forecast

Advertisements
Track Severe Weather on mobile